Time;durP1;ratioP1;P1;durP2;ratioP2;P2;SDS_P1;SDS_P2;PMS_P1;PMS_P2;Temp;Humidity;BMP_temperature;BMP_pressure;BME280_temperature;BME280_humidity;BME280_pressure;Samples;Min_cycle;Max_cycle;Signal;HPM_P1;HPM_P2
2023/09/16 00:00:06;;;;;;;0.50;0.37;;;;;;;20.06;100.00;95714.91;5071539;28;20909;-55
2023/09/16 00:02:34;;;;;;;0.50;0.37;;;;;;;19.88;100.00;95717.94;5071424;28;22918;-55
2023/09/16 00:05:04;;;;;;;0.67;0.40;;;;;;;19.53;100.00;95709.09;5070999;28;20450;-55
2023/09/16 00:07:32;;;;;;;0.70;0.60;;;;;;;19.45;100.00;95677.63;5070801;28;20465;-55
2023/09/16 00:10:00;;;;;;;0.50;0.40;;;;;;;19.58;100.00;95725.84;5071441;28;20495;-55
2023/09/16 00:12:29;;;;;;;0.60;0.50;;;;;;;19.50;100.00;95737.41;5071184;28;20465;-55
2023/09/16 00:14:57;;;;;;;2.30;0.97;;;;;;;19.33;100.00;95739.22;5071419;28;20472;-55
2023/09/16 00:17:27;;;;;;;0.70;0.57;;;;;;;19.21;100.00;95741.72;5073966;28;20438;-55
2023/09/16 00:19:55;;;;;;;0.83;0.80;;;;;;;19.34;100.00;95740.81;5075278;28;20469;-55
2023/09/16 00:22:24;;;;;;;0.70;0.60;;;;;;;19.51;100.00;95743.56;5074429;28;20506;-55
2023/09/16 00:24:52;;;;;;;1.13;1.07;;;;;;;19.48;100.00;95744.19;5075080;28;20476;-55
2023/09/16 00:27:21;;;;;;;1.30;1.20;;;;;;;19.41;100.00;95752.72;5074707;28;20490;-55
2023/09/16 00:29:49;;;;;;;0.90;0.60;;;;;;;19.22;100.00;95754.06;5074569;28;20436;-55
2023/09/16 00:32:17;;;;;;;0.80;0.80;;;;;;;19.15;100.00;95762.59;5049531;28;20486;-55
2023/09/16 00:34:48;;;;;;;0.50;0.33;;;;;;;19.45;100.00;95750.19;5074045;28;20481;-55
2023/09/16 00:37:17;;;;;;;2.60;0.90;;;;;;;19.51;100.00;95746.25;5074549;28;20480;-55
2023/09/16 00:39:45;;;;;;;0.70;0.60;;;;;;;19.66;100.00;95748.47;5073315;28;21035;-56
2023/09/16 00:42:14;;;;;;;1.30;1.20;;;;;;;19.39;100.00;95746.88;5074796;28;20929;-55
2023/09/16 00:44:44;;;;;;;1.30;1.17;;;;;;;19.27;100.00;95756.63;5074432;28;20469;-55
2023/09/16 00:47:13;;;;;;;0.80;0.60;;;;;;;19.44;100.00;95757.47;5067320;28;20437;-56
2023/09/16 00:49:42;;;;;;;1.90;1.10;;;;;;;19.38;100.00;95757.94;5070820;28;20949;-55
2023/09/16 00:52:12;;;;;;;0.50;0.40;;;;;;;19.69;100.00;95763.19;5074346;28;20491;-55
2023/09/16 00:54:40;;;;;;;1.33;0.43;;;;;;;19.91;100.00;95750.38;5074582;28;20429;-55
2023/09/16 00:57:13;;;;;;;0.80;0.80;;;;;;;20.15;100.00;95739.91;5074390;28;21001;-55
2023/09/16 00:59:41;;;;;;;0.90;0.67;;;;;;;19.98;100.00;95736.44;5074127;28;20515;-55
2023/09/16 01:02:10;;;;;;;0.73;0.43;;;;;;;19.90;100.00;95735.34;5074295;28;20453;-55
2023/09/16 01:04:39;;;;;;;0.83;0.83;;;;;;;19.66;100.00;95743.09;5074196;28;20937;-56
2023/09/16 01:07:08;;;;;;;0.60;0.50;;;;;;;19.94;100.00;95735.50;5074572;28;20799;-56
2023/09/16 01:09:39;;;;;;;0.80;0.70;;;;;;;19.74;100.00;95742.31;5074311;28;20442;-56
2023/09/16 01:12:08;;;;;;;0.70;0.40;;;;;;;19.89;100.00;95716.81;5073292;28;20436;-56
2023/09/16 01:14:37;;;;;;;1.17;0.40;;;;;;;19.22;100.00;95654.66;5074338;28;20440;-56
2023/09/16 01:17:09;;;;;;;0.80;0.80;;;;;;;19.83;100.00;95736.94;5073887;28;20515;-56
2023/09/16 01:19:56;;;;;;;0.70;0.53;;;;;;;19.55;100.00;95739.16;5074225;28;20861;-56
2023/09/16 01:22:25;;;;;;;0.50;0.40;;;;;;;19.64;100.00;95734.53;5073902;28;20449;-56
2023/09/16 01:24:56;;;;;;;0.83;0.83;;;;;;;19.71;100.00;95734.88;5073615;28;20498;-56
2023/09/16 01:27:27;;;;;;;0.60;0.60;;;;;;;19.59;100.00;95729.31;5047875;28;20957;-56
2023/09/16 01:29:56;;;;;;;0.50;0.40;;;;;;;19.73;100.00;95729.19;5073859;28;20442;-56
2023/09/16 01:32:31;;;;;;;1.10;1.00;;;;;;;19.44;100.00;95732.47;5074348;28;20823;-56
2023/09/16 01:35:06;;;;;;;1.17;0.83;;;;;;;19.20;100.00;95734.78;5073338;28;20477;-56
2023/09/16 01:37:37;;;;;;;1.87;0.93;;;;;;;19.25;100.00;95729.28;5073712;28;20441;-56
2023/09/16 01:40:10;;;;;;;1.53;1.10;;;;;;;19.47;100.00;95726.47;5073527;28;20443;-56
2023/09/16 01:42:41;;;;;;;0.60;0.60;;;;;;;19.70;100.00;95716.38;5073493;28;20477;-56
2023/09/16 01:45:11;;;;;;;0.70;0.70;;;;;;;19.84;100.00;95728.53;5072957;28;20472;-56
2023/09/16 01:47:39;;;;;;;0.53;0.43;;;;;;;19.70;100.00;95727.91;5073573;28;20499;-56
2023/09/16 01:50:08;;;;;;;1.47;1.37;;;;;;;19.62;100.00;95726.81;5073836;28;20937;-56
2023/09/16 01:52:37;;;;;;;0.70;0.70;;;;;;;19.48;100.00;95714.63;5072727;28;20965;-56
2023/09/16 01:55:06;;;;;;;3.30;1.33;;;;;;;19.36;100.00;95712.50;5073476;28;20441;-56
2023/09/16 01:57:34;;;;;;;0.70;0.70;;;;;;;19.50;100.00;95701.66;5072916;28;20441;-56
2023/09/16 02:00:06;;;;;;;2.10;0.50;;;;;;;19.69;100.00;95696.75;5073790;28;20827;-56
2023/09/16 02:02:34;;;;;;;1.03;0.80;;;;;;;19.81;100.00;95694.19;5072733;28;20539;-56
2023/09/16 02:05:02;;;;;;;0.60;0.50;;;;;;;20.09;100.00;95708.88;5073278;28;20969;-56
2023/09/16 02:07:31;;;;;;;0.50;0.40;;;;;;;20.12;100.00;95707.44;5072761;28;20441;-56
2023/09/16 02:09:59;;;;;;;0.50;0.40;;;;;;;20.05;100.00;95710.63;5073235;28;21017;-55
2023/09/16 02:12:27;;;;;;;0.83;0.70;;;;;;;19.92;100.00;95705.44;5072120;28;20499;-55
2023/09/16 02:14:56;;;;;;;0.90;0.90;;;;;;;20.18;100.00;95700.81;5072877;28;20964;-55
2023/09/16 02:17:27;;;;;;;3.80;0.60;;;;;;;20.25;100.00;95693.84;5072455;28;20502;-56
2023/09/16 02:19:55;;;;;;;0.47;0.40;;;;;;;20.35;100.00;95692.69;5072460;28;20440;-56
2023/09/16 02:22:23;;;;;;;0.53;0.50;;;;;;;20.08;100.00;95691.16;5072394;28;20477;-56
2023/09/16 02:24:52;;;;;;;0.70;0.70;;;;;;;20.25;100.00;95690.34;5073009;28;20437;-56
2023/09/16 02:27:20;;;;;;;0.80;0.50;;;;;;;19.80;100.00;95695.31;5072039;28;20452;-56
2023/09/16 02:29:49;;;;;;;0.60;0.60;;;;;;;19.60;100.00;95698.66;5072409;28;20472;-56
2023/09/16 02:32:17;;;;;;;0.60;0.50;;;;;;;19.59;100.00;95699.75;5072595;28;20475;-56
2023/09/16 02:34:47;;;;;;;0.40;0.33;;;;;;;19.54;100.00;95691.84;5071859;28;20622;-56
2023/09/16 02:37:15;;;;;;;0.53;0.40;;;;;;;19.77;100.00;95695.94;5072534;28;20485;-56
2023/09/16 02:39:44;;;;;;;0.40;0.27;;;;;;;19.94;100.00;95693.25;5071270;28;20448;-56
2023/09/16 02:42:12;;;;;;;0.50;0.50;;;;;;;19.92;100.00;95691.97;5072543;28;20487;-56
2023/09/16 02:44:40;;;;;;;0.53;0.53;;;;;;;19.93;100.00;95698.94;5072218;28;20441;-56
2023/09/16 02:47:09;;;;;;;0.83;0.83;;;;;;;19.51;100.00;95698.63;5072465;28;20933;-56
2023/09/16 02:49:37;;;;;;;1.13;1.03;;;;;;;19.34;100.00;95705.88;5058418;28;20822;-56
2023/09/16 02:52:07;;;;;;;0.67;0.67;;;;;;;19.11;100.00;95709.78;5072477;28;20933;-56
2023/09/16 02:54:35;;;;;;;0.83;0.83;;;;;;;18.94;100.00;95702.47;5072109;28;20441;-56
2023/09/16 02:57:04;;;;;;;0.80;0.50;;;;;;;19.02;100.00;95707.09;5072129;28;20441;-56
2023/09/16 02:59:33;;;;;;;1.00;0.50;;;;;;;19.03;100.00;95709.47;5071924;28;20465;-56
2023/09/16 03:02:01;;;;;;;0.60;0.53;;;;;;;18.86;100.00;95692.50;5072488;28;21007;-56
2023/09/16 03:04:29;;;;;;;0.80;0.80;;;;;;;19.18;100.00;95702.84;5071550;28;20469;-56
2023/09/16 03:06:58;;;;;;;0.50;0.30;;;;;;;19.51;100.00;95703.22;5060994;28;20499;-56
2023/09/16 03:09:27;;;;;;;1.07;0.40;;;;;;;19.75;100.00;95708.94;5070056;28;20487;-56
2023/09/16 03:11:56;;;;;;;0.57;0.50;;;;;;;19.84;100.00;95709.72;5071705;28;20446;-56
2023/09/16 03:14:24;;;;;;;0.80;0.60;;;;;;;20.03;100.00;95704.00;5071347;28;20441;-56
2023/09/16 03:16:53;;;;;;;0.60;0.40;;;;;;;19.97;100.00;95692.59;5071924;28;20962;-56
2023/09/16 03:19:22;;;;;;;0.50;0.40;;;;;;;19.81;100.00;95710.34;5046034;28;20508;-56
2023/09/16 03:21:50;;;;;;;0.50;0.30;;;;;;;19.66;100.00;95710.81;5071027;28;20469;-56
2023/09/16 03:24:18;;;;;;;0.97;0.50;;;;;;;19.51;100.00;95722.84;5071614;28;20495;-56
2023/09/16 03:26:48;;;;;;;1.27;0.40;;;;;;;19.85;100.00;95722.06;5071271;28;20487;-56
2023/09/16 03:29:18;;;;;;;0.63;0.63;;;;;;;20.01;100.00;95731.22;5071644;28;20444;-56
2023/09/16 03:31:46;;;;;;;1.03;1.00;;;;;;;19.72;100.00;95728.38;5071249;28;20437;-56
2023/09/16 03:34:14;;;;;;;0.80;0.70;;;;;;;18.30;100.00;95572.44;5071565;28;20497;-56
2023/09/16 03:36:43;;;;;;;0.50;0.50;;;;;;;19.17;100.00;95740.78;5071499;28;20450;-56
2023/09/16 03:39:11;;;;;;;0.77;0.60;;;;;;;19.21;100.00;95745.22;5071192;28;20447;-56
2023/09/16 03:41:39;;;;;;;0.90;0.90;;;;;;;19.33;100.00;95740.03;5071020;28;20484;-56
2023/09/16 03:44:10;;;;;;;0.60;0.40;;;;;;;19.34;100.00;95735.44;5070851;28;20442;-56
2023/09/16 03:46:39;;;;;;;1.93;0.90;;;;;;;19.35;100.00;95735.16;5071383;28;20437;-56
2023/09/16 03:49:07;;;;;;;0.70;0.60;;;;;;;19.38;100.00;95729.16;5071373;28;20445;-56
2023/09/16 03:51:37;;;;;;;0.80;0.80;;;;;;;19.48;100.00;95733.44;5070734;28;20516;-56
2023/09/16 03:54:06;;;;;;;0.50;0.30;;;;;;;19.68;100.00;95727.44;5071534;28;20433;-56
2023/09/16 03:56:35;;;;;;;0.60;0.60;;;;;;;19.41;100.00;95715.09;5071103;28;20455;-56
2023/09/16 03:59:03;;;;;;;0.60;0.40;;;;;;;19.43;100.00;95715.56;5071544;28;20445;-56
2023/09/16 04:01:33;;;;;;;0.40;0.30;;;;;;;19.80;100.00;95714.16;5045285;28;20460;-56
2023/09/16 04:04:02;;;;;;;0.60;0.30;;;;;;;19.69;100.00;95720.16;5070831;28;20440;-56
2023/09/16 04:06:30;;;;;;;0.60;0.40;;;;;;;19.69;100.00;95709.38;5071345;28;20449;-56
2023/09/16 04:08:59;;;;;;;3.60;0.43;;;;;;;19.43;100.00;95710.19;5070307;28;20445;-57
2023/09/16 04:11:27;;;;;;;0.60;0.60;;;;;;;19.53;100.00;95717.16;5071037;28;20434;-56
2023/09/16 04:13:56;;;;;;;0.63;0.43;;;;;;;19.58;100.00;95725.06;5071361;28;20436;-56
2023/09/16 04:16:25;;;;;;;0.70;0.63;;;;;;;19.52;100.00;95731.69;5071002;28;20473;-57
2023/09/16 04:18:55;;;;;;;0.60;0.40;;;;;;;19.49;100.00;95724.25;5070853;28;20433;-57
2023/09/16 04:21:24;;;;;;;0.90;0.90;;;;;;;19.28;100.00;95737.47;5070693;28;20433;-56
2023/09/16 04:23:53;;;;;;;0.50;0.50;;;;;;;19.59;100.00;95740.09;5070651;28;20941;-57
2023/09/16 04:26:21;;;;;;;0.80;0.80;;;;;;;19.56;100.00;95760.31;5070485;28;20441;-56
2023/09/16 04:28:49;;;;;;;0.60;0.40;;;;;;;19.61;100.00;95752.09;5070642;28;21052;-57
2023/09/16 04:31:18;;;;;;;1.67;1.57;;;;;;;19.39;100.00;95760.31;5070966;28;20433;-57
2023/09/16 04:33:47;;;;;;;1.03;1.00;;;;;;;19.26;100.00;95771.16;5071053;28;20433;-57
2023/09/16 04:36:18;;;;;;;0.70;0.70;;;;;;;19.17;100.00;95765.78;5070400;28;20855;-56
2023/09/16 04:38:46;;;;;;;5.13;0.80;;;;;;;19.30;100.00;95769.44;5071221;28;20434;-56
2023/09/16 04:41:15;;;;;;;1.10;0.97;;;;;;;19.30;100.00;95766.75;5070687;28;20492;-56
2023/09/16 04:43:43;;;;;;;0.53;0.50;;;;;;;19.50;100.00;95772.34;5070891;28;20473;-56
2023/09/16 04:46:12;;;;;;;0.50;0.40;;;;;;;19.78;100.00;95789.00;5070328;28;20441;-57
2023/09/16 04:48:40;;;;;;;0.97;0.67;;;;;;;19.35;100.00;95756.66;5070704;28;20433;-57
2023/09/16 04:51:09;;;;;;;0.50;0.40;;;;;;;19.53;100.00;95785.16;5070692;28;20824;-57
2023/09/16 04:53:39;;;;;;;0.90;0.90;;;;;;;19.70;100.00;95765.56;5070799;28;20437;-56
2023/09/16 04:56:09;;;;;;;0.60;0.40;;;;;;;20.10;100.00;95767.00;5070109;28;20941;-55
2023/09/16 04:58:38;;;;;;;0.40;0.30;;;;;;;20.24;100.00;95781.09;5070525;28;20434;-55
2023/09/16 05:01:06;;;;;;;1.53;0.83;;;;;;;20.13;100.00;95805.94;5070046;28;20502;-56
2023/09/16 05:03:35;;;;;;;0.60;0.33;;;;;;;20.13;100.00;95797.84;5073571;28;20555;-56
2023/09/16 05:06:03;;;;;;;0.50;0.40;;;;;;;20.08;100.00;95787.25;5074130;28;20449;-57
2023/09/16 05:08:35;;;;;;;0.50;0.33;;;;;;;19.89;100.00;95774.09;5074160;28;20445;-56
2023/09/16 05:11:05;;;;;;;0.67;0.50;;;;;;;20.08;100.00;95781.88;5074020;28;20953;-57
2023/09/16 05:13:34;;;;;;;0.90;0.60;;;;;;;19.99;100.00;95789.94;5073953;28;20971;-56
2023/09/16 05:16:03;;;;;;;0.40;0.30;;;;;;;20.06;100.00;95790.25;5073360;28;20524;-57
2023/09/16 05:18:32;;;;;;;0.67;0.43;;;;;;;19.74;100.00;95795.31;5074135;28;20992;-57
2023/09/16 05:21:01;;;;;;;0.50;0.30;;;;;;;20.14;100.00;95802.13;5074409;28;20529;-57
2023/09/16 05:23:30;;;;;;;0.50;0.50;;;;;;;19.84;100.00;95789.63;5073266;28;20465;-56
2023/09/16 05:25:59;;;;;;;0.70;0.50;;;;;;;19.69;100.00;95780.13;5073760;28;20437;-57
2023/09/16 05:28:28;;;;;;;0.87;0.87;;;;;;;19.48;100.00;95776.47;5073813;28;20441;-57
2023/09/16 05:30:57;;;;;;;0.50;0.40;;;;;;;19.72;100.00;95792.13;5073668;28;20996;-57
2023/09/16 05:33:26;;;;;;;0.50;0.30;;;;;;;20.07;100.00;95789.16;5073407;28;20441;-57
2023/09/16 05:35:54;;;;;;;0.77;0.70;;;;;;;19.77;100.00;95768.56;5073596;28;20476;-56
2023/09/16 05:38:22;;;;;;;0.47;0.33;;;;;;;19.74;100.00;95782.66;5073898;28;20440;-55
2023/09/16 05:40:51;;;;;;;0.50;0.40;;;;;;;19.64;100.00;95788.34;5073827;28;20440;-56
2023/09/16 05:43:19;;;;;;;0.60;0.40;;;;;;;19.77;100.00;95786.59;5073165;28;20469;-56
2023/09/16 05:45:52;;;;;;;1.00;0.90;;;;;;;19.50;100.00;95775.03;5073849;28;20445;-56
2023/09/16 05:48:20;;;;;;;0.87;0.80;;;;;;;19.37;100.00;95799.34;5073018;28;20938;-55
2023/09/16 05:50:56;;;;;;;0.50;0.40;;;;;;;19.47;100.00;95826.75;5073400;28;20524;-55
2023/09/16 05:53:25;;;;;;;0.60;0.30;;;;;;;19.59;100.00;95764.28;5047932;28;20472;-55
2023/09/16 05:55:54;;;;;;;0.70;0.57;;;;;;;20.23;100.00;95801.06;5072321;28;20438;-54
2023/09/16 05:58:22;;;;;;;0.60;0.50;;;;;;;20.03;100.00;95812.44;5073745;28;20472;-55
2023/09/16 06:00:55;;;;;;;0.60;0.57;;;;;;;19.93;100.00;95801.19;5072567;28;20949;-55
2023/09/16 06:03:24;;;;;;;0.80;0.80;;;;;;;19.93;100.00;95807.38;5072516;28;20508;-54
2023/09/16 06:05:58;;;;;;;0.50;0.43;;;;;;;20.03;100.00;95801.66;5072319;28;20532;-55
2023/09/16 06:08:27;;;;;;;0.67;0.53;;;;;;;20.02;100.00;95805.44;5072491;28;20444;-55
2023/09/16 06:10:56;;;;;;;0.50;0.40;;;;;;;20.11;100.00;95810.84;5072958;28;20445;-55
2023/09/16 06:13:24;;;;;;;0.50;0.50;;;;;;;19.98;100.00;95811.78;5072974;28;20479;-54
2023/09/16 06:15:55;;;;;;;0.73;0.67;;;;;;;19.90;100.00;95780.28;5072966;28;20433;-54
2023/09/16 06:18:23;;;;;;;0.60;0.60;;;;;;;20.14;100.00;95815.56;5073029;28;20853;-54
2023/09/16 06:20:52;;;;;;;0.40;0.30;;;;;;;20.34;100.00;95808.81;5072794;28;20854;-54
2023/09/16 06:23:20;;;;;;;0.50;0.30;;;;;;;20.56;100.00;95814.00;5072427;28;20563;-54
2023/09/16 06:25:49;;;;;;;3.60;0.50;;;;;;;20.61;100.00;95789.56;5072526;28;20441;-53
2023/09/16 06:28:17;;;;;;;0.60;0.40;;;;;;;21.01;100.00;95809.72;5071938;28;20449;-54
2023/09/16 06:30:45;;;;;;;0.70;0.70;;;;;;;20.94;100.00;95809.44;5072619;28;20491;-52
2023/09/16 06:33:15;;;;;;;0.50;0.43;;;;;;;21.12;100.00;95821.78;5072594;28;20477;-54
2023/09/16 06:35:44;;;;;;;0.50;0.50;;;;;;;21.08;100.00;95825.44;5072412;28;20476;-53
2023/09/16 06:38:12;;;;;;;0.40;0.30;;;;;;;20.93;100.00;95829.41;5072450;28;20445;-53
2023/09/16 06:40:41;;;;;;;0.50;0.40;;;;;;;21.06;100.00;95841.13;5072771;28;20503;-53
2023/09/16 06:43:09;;;;;;;0.90;0.87;;;;;;;20.97;100.00;95838.47;5071522;28;20481;-54
2023/09/16 06:45:38;;;;;;;1.47;0.30;;;;;;;21.09;100.00;95854.78;5072083;28;20437;-55
2023/09/16 06:48:08;;;;;;;1.07;1.07;;;;;;;21.47;100.00;95850.19;5071863;28;20437;-54
2023/09/16 06:50:39;;;;;;;0.70;0.60;;;;;;;21.70;100.00;95853.38;5072677;28;20531;-54
2023/09/16 06:53:08;;;;;;;0.50;0.40;;;;;;;21.43;100.00;95843.81;5071387;28;20820;-53
2023/09/16 06:55:36;;;;;;;1.33;0.60;;;;;;;21.59;100.00;95854.06;5071288;28;20446;-53
2023/09/16 06:58:06;;;;;;;0.77;0.77;;;;;;;21.53;100.00;95859.66;5071996;28;20445;-52
2023/09/16 07:00:37;;;;;;;0.63;0.60;;;;;;;21.90;100.00;95862.66;5072369;28;20845;-53
2023/09/16 07:03:06;;;;;;;1.27;0.90;;;;;;;22.08;100.00;95858.72;5071791;28;20441;-53
2023/09/16 07:05:35;;;;;;;1.53;1.43;;;;;;;22.58;100.00;95856.72;5071674;28;20520;-51
2023/09/16 07:08:05;;;;;;;1.40;0.63;;;;;;;22.60;100.00;95854.47;5071409;28;20957;-52
2023/09/16 07:10:33;;;;;;;1.07;0.97;;;;;;;22.22;100.00;95863.84;5071276;28;20433;-52
2023/09/16 07:13:02;;;;;;;1.47;0.70;;;;;;;22.60;100.00;95861.78;5072066;28;20437;-52
2023/09/16 07:15:30;;;;;;;0.63;0.60;;;;;;;22.71;100.00;95861.06;5071553;28;20437;-51
2023/09/16 07:17:59;;;;;;;0.63;0.50;;;;;;;23.06;100.00;95853.38;5071276;28;20449;-54
2023/09/16 07:20:27;;;;;;;0.50;0.30;;;;;;;23.19;100.00;95829.88;5071093;28;20491;-55
2023/09/16 07:22:57;;;;;;;0.60;0.53;;;;;;;23.41;100.00;95855.72;5071989;28;20445;-55
2023/09/16 07:25:27;;;;;;;0.80;0.70;;;;;;;22.92;100.00;95855.59;5071174;28;20817;-55
2023/09/16 07:27:55;;;;;;;1.13;0.80;;;;;;;22.39;100.00;95847.53;5071599;28;20465;-52
2023/09/16 07:30:24;;;;;;;1.10;0.70;;;;;;;22.62;100.00;95851.44;5071440;28;20516;-53
2023/09/16 07:33:00;;;;;;;1.20;0.53;;;;;;;22.82;100.00;95837.09;5071282;28;20502;-56
2023/09/16 07:35:31;;;;;;;0.70;0.60;;;;;;;22.84;100.00;95815.16;5071248;28;20556;-53
2023/09/16 07:37:59;;;;;;;1.70;0.50;;;;;;;23.24;100.00;95856.69;5071566;28;20473;-53
2023/09/16 07:40:29;;;;;;;1.00;1.00;;;;;;;23.97;100.00;95847.47;5071568;28;20469;-53
2023/09/16 07:42:57;;;;;;;1.00;0.90;;;;;;;24.66;100.00;95845.59;5069890;28;20442;-53
2023/09/16 07:45:26;;;;;;;0.60;0.60;;;;;;;24.99;100.00;95849.63;5059761;28;20984;-53
2023/09/16 07:47:54;;;;;;;0.70;0.40;;;;;;;24.98;98.99;95850.75;5070789;28;20441;-53
2023/09/16 07:50:22;;;;;;;0.80;0.80;;;;;;;24.00;100.00;95854.91;5071366;28;20444;-53
2023/09/16 07:52:51;;;;;;;1.67;1.07;;;;;;;23.64;100.00;95851.44;5070684;28;20441;-54
2023/09/16 07:55:21;;;;;;;0.50;0.47;;;;;;;23.93;100.00;95856.63;5071746;28;20463;-52
2023/09/16 07:57:51;;;;;;;0.60;0.50;;;;;;;24.56;100.00;95857.72;5071079;28;20441;-53
2023/09/16 08:00:20;;;;;;;2.20;1.03;;;;;;;25.22;100.00;95858.72;5070888;28;20447;-54
2023/09/16 08:02:48;;;;;;;0.70;0.70;;;;;;;25.15;94.14;95863.19;5071184;28;20945;-54
2023/09/16 08:05:16;;;;;;;1.20;1.10;;;;;;;25.24;96.14;95828.56;5071331;28;20480;-54
2023/09/16 08:07:45;;;;;;;1.37;1.37;;;;;;;25.90;100.00;95863.13;5070932;28;20441;-54
2023/09/16 08:10:14;;;;;;;0.63;0.60;;;;;;;26.07;93.65;95828.19;5071210;28;20448;-54
2023/09/16 08:12:43;;;;;;;2.30;0.80;;;;;;;25.96;89.16;95870.63;5071081;28;20462;-54
2023/09/16 08:15:13;;;;;;;2.13;2.03;;;;;;;25.17;88.50;95861.72;5071731;28;20453;-55
2023/09/16 08:17:41;;;;;;;5.50;1.23;;;;;;;25.57;91.74;95858.09;5045151;28;20433;-55
2023/09/16 08:20:10;;;;;;;0.70;0.70;;;;;;;25.95;91.63;95860.13;5070454;28;20437;-54
2023/09/16 08:22:39;;;;;;;1.10;0.93;;;;;;;26.25;91.06;95856.56;5070857;28;20519;-54
2023/09/16 08:25:07;;;;;;;0.60;0.60;;;;;;;26.73;88.34;95859.88;5070665;28;20538;-53
2023/09/16 08:27:36;;;;;;;0.40;0.30;;;;;;;26.68;84.12;95865.59;5070973;28;20544;-54
2023/09/16 08:30:05;;;;;;;0.67;0.60;;;;;;;27.06;86.82;95858.22;5071431;28;20438;-54
2023/09/16 08:32:38;;;;;;;1.17;0.70;;;;;;;27.24;80.17;95861.25;5062122;28;20441;-53
2023/09/16 08:35:08;;;;;;;0.70;0.60;;;;;;;27.54;78.20;95864.91;5067627;28;20526;-54
2023/09/16 08:37:36;;;;;;;1.53;0.97;;;;;;;26.66;77.87;95857.03;5072493;28;20476;-54
2023/09/16 08:40:05;;;;;;;0.70;0.70;;;;;;;26.74;82.57;95856.78;5074836;28;20924;-52
2023/09/16 08:42:38;;;;;;;0.40;0.30;;;;;;;26.69;86.51;95865.22;5075220;28;20441;-51
2023/09/16 08:45:08;;;;;;;0.97;0.60;;;;;;;26.27;89.35;95842.63;5074568;28;20508;-51
2023/09/16 08:47:43;;;;;;;0.50;0.40;;;;;;;26.41;87.24;95873.59;5074584;28;20476;-53
2023/09/16 08:50:12;;;;;;;0.50;0.50;;;;;;;26.61;86.72;95876.34;5050139;28;20460;-52
2023/09/16 08:52:47;;;;;;;1.77;0.40;;;;;;;26.09;88.25;95877.53;5073275;28;20498;-50
2023/09/16 08:55:16;;;;;;;1.23;0.70;;;;;;;25.75;89.83;95881.03;5063601;28;20552;-51
2023/09/16 08:57:48;;;;;;;0.70;0.67;;;;;;;25.58;95.37;95881.34;5073987;28;20891;-50
2023/09/16 09:00:18;;;;;;;0.50;0.30;;;;;;;25.58;100.00;95882.16;5074110;28;20437;-50
2023/09/16 09:02:49;;;;;;;0.40;0.40;;;;;;;25.74;95.01;95882.16;5074090;28;20439;-50
2023/09/16 09:05:19;;;;;;;0.57;0.57;;;;;;;25.42;98.32;95859.63;5073961;28;20474;-50
2023/09/16 09:07:48;;;;;;;0.73;0.73;;;;;;;25.24;100.00;95890.97;5073828;28;20460;-50
2023/09/16 09:10:16;;;;;;;0.60;0.60;;;;;;;24.71;100.00;95878.66;5074226;28;20944;-50
2023/09/16 09:12:45;;;;;;;0.87;0.87;;;;;;;24.75;100.00;95893.09;5073858;28;20948;-49
2023/09/16 09:15:15;;;;;;;1.17;0.80;;;;;;;24.78;100.00;95895.16;5074058;28;20484;-49
2023/09/16 09:17:48;;;;;;;0.60;0.53;;;;;;;24.10;100.00;95829.28;5074209;28;20437;-50
2023/09/16 09:20:20;;;;;;;0.93;0.60;;;;;;;24.25;100.00;95892.78;5073724;28;20438;-50
2023/09/16 09:22:50;;;;;;;0.70;0.70;;;;;;;24.25;100.00;95890.88;5073712;28;20441;-53
2023/09/16 09:25:23;;;;;;;0.63;0.47;;;;;;;24.10;100.00;95888.88;5073298;28;20465;-54
2023/09/16 09:27:52;;;;;;;0.53;0.50;;;;;;;24.08;100.00;95893.84;5073813;28;20491;-53
2023/09/16 09:30:26;;;;;;;0.80;0.80;;;;;;;23.73;100.00;95890.03;5073323;28;20460;-52
2023/09/16 09:32:57;;;;;;;0.60;0.60;;;;;;;24.03;100.00;95891.34;5073968;28;20968;-52
2023/09/16 09:35:27;;;;;;;0.50;0.40;;;;;;;23.89;100.00;95886.28;5073244;28;20835;-52
2023/09/16 09:37:56;;;;;;;0.50;0.50;;;;;;;23.58;100.00;95840.03;5073375;28;20442;-53
2023/09/16 09:40:25;;;;;;;0.40;0.30;;;;;;;24.21;100.00;95889.22;5073613;28;20812;-53
2023/09/16 09:42:56;;;;;;;0.60;0.60;;;;;;;24.23;100.00;95884.22;5073993;28;20449;-53
2023/09/16 09:45:28;;;;;;;1.00;0.60;;;;;;;24.31;100.00;95869.78;5072843;28;20477;-53
2023/09/16 09:47:57;;;;;;;0.60;0.50;;;;;;;24.38;100.00;95875.38;5072976;28;20452;-52
2023/09/16 09:50:26;;;;;;;0.80;0.70;;;;;;;24.24;100.00;95866.81;5073842;28;20451;-53
2023/09/16 09:52:56;;;;;;;0.63;0.63;;;;;;;24.31;100.00;95867.81;5072516;28;20540;-53
2023/09/16 09:55:30;;;;;;;0.70;0.70;;;;;;;24.27;100.00;95869.66;5073268;28;20457;-53
2023/09/16 09:57:59;;;;;;;0.90;0.80;;;;;;;24.36;100.00;95869.53;5072592;28;20441;-52
2023/09/16 10:00:28;;;;;;;0.53;0.40;;;;;;;24.54;100.00;95870.81;5073037;28;20631;-52
2023/09/16 10:03:00;;;;;;;1.20;1.10;;;;;;;23.92;100.00;95861.22;5072980;28;20438;-52
2023/09/16 10:05:35;;;;;;;1.13;1.07;;;;;;;24.30;100.00;95865.47;5073302;28;20465;-52
2023/09/16 10:08:03;;;;;;;2.30;0.40;;;;;;;24.70;100.00;95857.31;5072862;28;20441;-53
2023/09/16 10:10:32;;;;;;;1.43;0.77;;;;;;;25.19;100.00;95864.09;5072596;28;20437;-52
2023/09/16 10:13:01;;;;;;;0.60;0.60;;;;;;;25.75;97.57;95870.16;5073507;28;20514;-53
2023/09/16 10:15:33;;;;;;;0.83;0.83;;;;;;;26.44;90.85;95859.28;5072185;28;20441;-54
2023/09/16 10:18:04;;;;;;;1.73;1.63;;;;;;;27.59;86.35;95848.28;5073026;28;20448;-52
2023/09/16 10:20:34;;;;;;;0.60;0.60;;;;;;;28.28;78.89;95868.00;5072300;28;20516;-52
2023/09/16 10:23:03;;;;;;;0.90;0.53;;;;;;;28.57;73.20;95856.31;5072265;28;20441;-52
2023/09/16 10:25:33;;;;;;;1.20;1.10;;;;;;;28.04;69.46;95858.31;5071705;28;20477;-53
2023/09/16 10:28:08;;;;;;;1.10;1.00;;;;;;;27.97;73.34;95862.84;5072511;28;20802;-52
2023/09/16 10:30:37;;;;;;;1.10;1.00;;;;;;;27.91;72.82;95861.59;5072520;28;20437;-52
2023/09/16 10:33:08;;;;;;;0.87;0.87;;;;;;;28.66;73.14;95847.88;5070354;28;20441;-53
2023/09/16 10:35:40;;;;;;;0.53;0.40;;;;;;;28.80;72.32;95854.28;5046074;28;20504;-53
2023/09/16 10:38:10;;;;;;;0.50;0.50;;;;;;;28.54;70.90;95850.81;5072564;28;20840;-53
2023/09/16 10:40:40;;;;;;;0.67;0.67;;;;;;;28.89;70.19;95845.81;5072512;28;20463;-54
2023/09/16 10:43:11;;;;;;;0.57;0.50;;;;;;;29.44;69.03;95846.75;5071825;28;20433;-54
2023/09/16 10:45:42;;;;;;;2.10;0.70;;;;;;;28.50;67.26;95850.75;5072076;28;20465;-53
2023/09/16 10:48:12;;;;;;;0.90;0.90;;;;;;;28.33;66.40;95840.44;5072208;28;20444;-54
2023/09/16 10:50:43;;;;;;;0.60;0.50;;;;;;;28.20;67.49;95817.28;5071626;28;20521;-54
2023/09/16 10:53:16;;;;;;;6.30;1.00;;;;;;;28.88;65.42;95836.81;5072355;28;20447;-54
2023/09/16 10:55:53;;;;;;;0.40;0.30;;;;;;;28.76;64.38;95822.66;5071859;28;20503;-54
2023/09/16 10:58:32;;;;;;;0.47;0.43;;;;;;;28.37;66.18;95837.72;5046880;28;20448;-54
2023/09/16 11:01:03;;;;;;;0.67;0.67;;;;;;;29.26;63.36;95824.75;5071245;28;20517;-55
2023/09/16 11:03:37;;;;;;;0.50;0.40;;;;;;;29.35;61.08;95802.56;5072248;28;20468;-54
2023/09/16 11:06:05;;;;;;;0.70;0.70;;;;;;;28.86;60.47;95827.44;5071483;28;21157;-54
2023/09/16 11:08:34;;;;;;;0.53;0.53;;;;;;;28.53;62.09;95843.78;5071741;28;20445;-55
2023/09/16 11:11:03;;;;;;;0.50;0.50;;;;;;;28.57;65.03;95839.16;5071855;28;20477;-55
2023/09/16 11:13:31;;;;;;;0.70;0.47;;;;;;;28.44;63.41;95835.88;5071961;28;20449;-55
2023/09/16 11:16:00;;;;;;;0.60;0.60;;;;;;;28.32;65.82;95825.22;5071773;28;20521;-54
2023/09/16 11:18:30;;;;;;;0.40;0.30;;;;;;;28.70;65.13;95819.47;5071869;28;20451;-54
2023/09/16 11:21:01;;;;;;;0.50;0.50;;;;;;;29.08;66.64;95792.94;5072061;28;20443;-54
2023/09/16 11:23:29;;;;;;;1.00;0.57;;;;;;;30.06;59.76;95812.09;5071208;28;20448;-54
2023/09/16 11:25:58;;;;;;;2.60;0.50;;;;;;;30.79;61.39;95817.13;5071257;28;20475;-54
2023/09/16 11:28:26;;;;;;;1.23;1.23;;;;;;;30.02;59.81;95800.34;5071464;28;20453;-54
2023/09/16 11:30:59;;;;;;;0.80;0.60;;;;;;;30.11;59.92;95809.78;5071653;28;20969;-55
2023/09/16 11:33:31;;;;;;;0.50;0.40;;;;;;;30.52;58.28;95809.59;5071043;28;20470;-53
2023/09/16 11:36:16;;;;;;;0.50;0.47;;;;;;;29.38;57.94;95796.34;5071502;28;20564;-54